createdAt,value
2022-11-16T00:01:47.915Z,4.25
2022-11-16T00:04:16.950Z,4.25
2022-11-16T00:06:47.119Z,4.23
2022-11-16T00:09:29.958Z,4.22
2022-11-16T00:12:13.007Z,4.20
2022-11-16T00:14:42.031Z,4.16
2022-11-16T00:17:11.160Z,4.13
2022-11-16T00:19:40.052Z,4.12
2022-11-16T00:22:09.341Z,4.14
2022-11-16T00:24:38.320Z,4.17
2022-11-16T00:27:20.883Z,4.17
2022-11-16T00:29:49.879Z,4.17
2022-11-16T00:32:33.864Z,4.18
2022-11-16T00:35:02.969Z,4.16
2022-11-16T00:37:32.228Z,4.15
2022-11-16T00:40:15.167Z,4.17
2022-11-16T00:42:44.360Z,4.19
2022-11-16T00:45:13.320Z,4.21
2022-11-16T00:47:43.911Z,4.19
2022-11-16T00:50:12.793Z,4.16
2022-11-16T00:52:42.080Z,4.15
2022-11-16T00:55:24.929Z,4.11
2022-11-16T00:58:07.488Z,4.06
2022-11-16T01:00:50.021Z,4.01
2022-11-16T01:03:19.167Z,4.01
2022-11-16T01:06:03.911Z,4.00
2022-11-16T01:08:47.244Z,4.02
2022-11-16T01:11:36.457Z,4.04
2022-11-16T01:14:08.657Z,4.06
2022-11-16T01:16:38.313Z,4.08
2022-11-16T01:19:09.379Z,4.09
2022-11-16T01:21:52.567Z,4.09
2022-11-16T01:24:21.750Z,4.09
2022-11-16T01:27:04.312Z,4.11
2022-11-16T01:29:35.835Z,4.14
2022-11-16T01:32:18.559Z,4.16
2022-11-16T01:35:01.941Z,4.17
2022-11-16T01:37:34.568Z,4.20
2022-11-16T01:40:04.487Z,4.21
2022-11-16T01:42:48.594Z,4.22
2022-11-16T01:45:44.945Z,4.20
2022-11-16T01:48:30.531Z,4.20
2022-11-16T01:51:00.704Z,4.20
2022-11-16T01:53:31.956Z,4.19
2022-11-16T01:56:01.353Z,4.18
2022-11-16T01:58:54.359Z,4.16
2022-11-16T02:01:27.316Z,4.15
2022-11-16T02:04:12.626Z,4.14
2022-11-16T02:07:14.490Z,4.16
2022-11-16T02:10:02.847Z,4.15
2022-11-16T02:13:13.022Z,4.14
2022-11-16T02:15:57.197Z,4.16
2022-11-16T02:18:37.848Z,4.15
2022-11-16T02:21:39.903Z,4.14
2022-11-16T02:24:13.118Z,4.14
2022-11-16T02:27:03.423Z,4.15
2022-11-16T02:29:43.848Z,4.16
2022-11-16T02:32:20.255Z,4.15
2022-11-16T02:35:09.200Z,4.14
2022-11-16T02:37:47.846Z,4.15
2022-11-16T02:40:35.523Z,4.14
2022-11-16T02:43:17.023Z,4.14
2022-11-16T02:46:04.428Z,4.15
2022-11-16T02:48:50.858Z,4.14
2022-11-16T02:51:37.312Z,4.16
2022-11-16T02:54:19.701Z,4.18
2022-11-16T02:57:04.961Z,4.19
2022-11-16T02:59:53.740Z,4.21
2022-11-16T03:02:34.369Z,4.22
2022-11-16T03:05:15.912Z,4.20
2022-11-16T03:08:01.114Z,4.20
2022-11-16T03:10:51.481Z,4.19
2022-11-16T03:13:37.229Z,4.20
2022-11-16T03:16:19.415Z,4.23
2022-11-16T03:19:06.409Z,4.24
2022-11-16T03:21:47.454Z,4.27
2022-11-16T03:24:32.185Z,4.32
2022-11-16T03:27:08.977Z,4.35
2022-11-16T03:30:04.528Z,4.38
2022-11-16T03:33:12.086Z,4.35
2022-11-16T03:35:50.576Z,4.34
2022-11-16T03:38:22.564Z,4.33
2022-11-16T03:40:52.349Z,4.30
2022-11-16T03:43:22.641Z,4.29
2022-11-16T03:45:51.942Z,4.26
2022-11-16T03:48:21.033Z,4.25
2022-11-16T03:50:52.131Z,4.24
2022-11-16T03:53:21.817Z,4.27
2022-11-16T03:56:04.834Z,4.29
2022-11-16T03:58:47.874Z,4.28
2022-11-16T04:01:17.346Z,4.25
2022-11-16T04:03:47.103Z,4.21
2022-11-16T04:06:35.980Z,4.18
2022-11-16T04:09:30.077Z,4.17
2022-11-16T04:12:17.989Z,4.15
2022-11-16T04:15:05.925Z,4.19
2022-11-16T04:17:54.167Z,4.19
2022-11-16T04:20:42.417Z,4.18
2022-11-16T04:23:36.066Z,4.16
2022-11-16T04:26:09.238Z,4.14
2022-11-16T04:28:39.650Z,4.14
2022-11-16T04:31:27.720Z,4.13
2022-11-16T04:34:25.448Z,4.12
2022-11-16T04:37:15.082Z,4.12
2022-11-16T04:39:44.068Z,4.10
2022-11-16T04:42:20.184Z,4.08
2022-11-16T04:45:10.423Z,4.08
2022-11-16T04:47:48.295Z,4.09
2022-11-16T04:50:19.842Z,4.08
2022-11-16T04:53:04.253Z,4.05
2022-11-16T04:55:35.479Z,4.03
2022-11-16T04:58:05.712Z,4.03
2022-11-16T05:00:34.686Z,4.01
2022-11-16T05:03:05.189Z,4.02
2022-11-16T05:05:50.823Z,4.03
2022-11-16T05:08:20.244Z,4.02
2022-11-16T05:10:53.744Z,4.01
2022-11-16T05:13:23.223Z,4.03
2022-11-16T05:15:53.329Z,4.03
2022-11-16T05:18:22.059Z,4.02
2022-11-16T05:21:05.155Z,3.99
2022-11-16T05:23:58.704Z,3.96
2022-11-16T05:26:30.888Z,3.93
2022-11-16T05:28:59.755Z,3.91
2022-11-16T05:31:42.369Z,3.88
2022-11-16T05:34:11.869Z,3.87
2022-11-16T05:36:40.695Z,3.85
2022-11-16T05:39:09.656Z,3.85
2022-11-16T05:41:39.612Z,3.83
2022-11-16T05:44:08.580Z,3.82
2022-11-16T05:46:38.391Z,3.83
2022-11-16T05:49:08.166Z,3.83
2022-11-16T05:51:38.749Z,3.83
2022-11-16T05:54:08.922Z,3.82
2022-11-16T05:56:38.045Z,3.83
2022-11-16T05:59:10.055Z,3.81
2022-11-16T06:01:42.550Z,3.82
2022-11-16T06:04:26.149Z,3.81
2022-11-16T06:06:56.414Z,3.82
2022-11-16T06:09:30.101Z,3.84
2022-11-16T06:12:02.781Z,3.82
2022-11-16T06:14:45.978Z,3.80
2022-11-16T06:17:28.782Z,3.78
2022-11-16T06:19:59.028Z,3.76
2022-11-16T06:22:28.381Z,3.76
2022-11-16T06:24:58.403Z,3.77
2022-11-16T06:27:28.038Z,3.78
2022-11-16T06:29:57.799Z,3.77
2022-11-16T06:32:26.898Z,3.75
2022-11-16T06:34:55.779Z,3.72
2022-11-16T06:37:25.663Z,3.70
2022-11-16T06:39:54.948Z,3.67
2022-11-16T06:42:24.849Z,3.63
2022-11-16T06:44:55.073Z,3.58
2022-11-16T06:47:27.145Z,3.58
2022-11-16T06:49:55.821Z,3.58
2022-11-16T06:52:25.342Z,3.56
2022-11-16T06:54:54.656Z,3.51
2022-11-16T06:57:24.670Z,3.48
2022-11-16T07:00:11.032Z,3.48
2022-11-16T07:02:54.207Z,3.47
2022-11-16T07:05:41.153Z,3.45
2022-11-16T07:08:13.972Z,3.46
2022-11-16T07:10:42.657Z,3.46
2022-11-16T07:13:12.176Z,3.42
2022-11-16T07:15:54.767Z,3.36
2022-11-16T07:18:25.525Z,3.29
2022-11-16T07:20:54.844Z,3.26
2022-11-16T07:23:24.764Z,3.22
2022-11-16T07:26:08.613Z,3.19
2022-11-16T07:28:47.936Z,3.16
2022-11-16T07:31:32.432Z,3.15
2022-11-16T07:34:20.224Z,3.14
2022-11-16T07:36:54.557Z,3.13
2022-11-16T07:39:37.357Z,3.12
2022-11-16T07:42:11.876Z,3.11
2022-11-16T07:45:00.107Z,3.14
2022-11-16T07:47:29.312Z,3.18
2022-11-16T07:49:58.240Z,3.22
2022-11-16T07:52:29.885Z,3.27
2022-11-16T07:55:07.301Z,3.29
2022-11-16T07:57:36.441Z,3.30
2022-11-16T08:00:08.960Z,3.31
2022-11-16T08:02:46.841Z,3.34
2022-11-16T08:05:20.561Z,3.37
2022-11-16T08:07:51.063Z,3.41
2022-11-16T08:10:24.008Z,3.40
2022-11-16T08:12:53.918Z,3.40
2022-11-16T08:15:25.454Z,3.39
2022-11-16T08:17:55.007Z,3.32
2022-11-16T08:20:24.265Z,3.30
2022-11-16T08:22:53.866Z,3.34
2022-11-16T08:25:23.346Z,3.37
2022-11-16T08:27:52.635Z,3.41
2022-11-16T08:30:23.227Z,3.41
2022-11-16T08:33:05.951Z,3.37
2022-11-16T08:35:35.228Z,3.36
2022-11-16T08:38:18.878Z,3.37
2022-11-16T08:40:50.944Z,3.41
2022-11-16T08:43:20.613Z,3.46
2022-11-16T08:46:03.796Z,3.51
2022-11-16T08:48:46.860Z,3.52
2022-11-16T08:51:20.535Z,3.53
2022-11-16T08:54:09.866Z,3.57
2022-11-16T08:56:40.356Z,3.58
2022-11-16T08:59:09.326Z,3.62
2022-11-16T09:01:41.346Z,3.67
2022-11-16T09:04:25.454Z,3.71
2022-11-16T09:07:08.213Z,3.73
2022-11-16T09:09:36.984Z,3.75
2022-11-16T09:12:06.231Z,3.75
2022-11-16T09:17:31.065Z,3.80
2022-11-16T09:20:00.149Z,3.83
2022-11-16T09:22:28.954Z,3.86
2022-11-16T09:24:57.616Z,3.89
2022-11-16T09:27:26.330Z,3.93
2022-11-16T09:29:54.991Z,3.96
2022-11-16T09:32:23.888Z,3.97
2022-11-16T09:34:53.964Z,3.95
2022-11-16T09:37:22.687Z,3.94
2022-11-16T09:39:52.469Z,3.90
2022-11-16T09:42:42.344Z,3.85
2022-11-16T09:45:41.724Z,3.82
2022-11-16T09:48:25.558Z,3.78
2022-11-16T09:51:12.551Z,3.80
2022-11-16T09:54:04.305Z,3.77
2022-11-16T09:56:37.910Z,3.73
2022-11-16T09:59:15.048Z,3.69
2022-11-16T10:02:14.893Z,3.61
2022-11-16T10:05:08.610Z,3.61
2022-11-16T10:07:58.677Z,3.59
2022-11-16T10:10:49.469Z,3.56
2022-11-16T10:14:09.967Z,3.56
2022-11-16T10:16:57.681Z,3.48
2022-11-16T10:19:54.198Z,3.48
2022-11-16T10:22:46.613Z,3.49
2022-11-16T10:25:38.415Z,3.48
2022-11-16T10:28:26.441Z,3.51
2022-11-16T10:33:53.786Z,3.64
2022-11-16T10:36:28.153Z,3.69
2022-11-16T10:38:57.510Z,3.74
2022-11-16T10:41:50.909Z,3.82
2022-11-16T10:44:42.596Z,3.86
2022-11-16T10:47:57.326Z,3.84
2022-11-16T10:50:47.451Z,3.82
2022-11-16T10:53:32.773Z,3.80
2022-11-16T10:56:32.420Z,3.82
2022-11-16T10:59:18.963Z,3.83
2022-11-16T11:01:50.516Z,3.82
2022-11-16T11:04:23.460Z,3.75
2022-11-16T11:07:18.757Z,3.72
2022-11-16T11:09:53.555Z,3.69
2022-11-16T11:12:40.546Z,3.68
2022-11-16T11:15:12.990Z,3.67
2022-11-16T11:18:31.236Z,3.61
2022-11-16T11:21:18.276Z,3.56
2022-11-16T11:24:29.694Z,3.55
2022-11-16T11:27:00.382Z,3.58
2022-11-16T11:29:43.853Z,3.55
2022-11-16T11:32:23.834Z,3.46
2022-11-16T11:34:55.030Z,3.39
2022-11-16T11:37:32.486Z,3.35
2022-11-16T11:40:16.677Z,3.32
2022-11-16T11:43:05.466Z,3.27
2022-11-16T11:45:46.172Z,3.27
2022-11-16T11:48:30.608Z,3.24
2022-11-16T11:51:05.223Z,3.19
2022-11-16T11:53:55.120Z,3.14
2022-11-16T11:56:37.607Z,3.11
2022-11-16T11:59:24.539Z,3.13
2022-11-16T12:02:16.263Z,3.14
2022-11-16T12:05:16.124Z,3.10
2022-11-16T12:08:09.663Z,3.06
2022-11-16T12:10:52.872Z,3.05
2022-11-16T12:13:58.556Z,3.04
2022-11-16T12:16:52.016Z,3.05
2022-11-16T12:19:33.587Z,3.07
2022-11-16T12:22:39.486Z,3.09
2022-11-16T12:25:20.543Z,3.04
2022-11-16T12:28:04.275Z,3.03
2022-11-16T12:30:40.261Z,3.02
2022-11-16T12:33:47.421Z,2.94
2022-11-16T12:36:40.742Z,2.80
2022-11-16T12:39:53.570Z,2.72
2022-11-16T12:42:46.786Z,2.67
2022-11-16T12:45:44.661Z,2.66
2022-11-16T12:48:38.713Z,2.65
2022-11-16T12:51:33.348Z,2.60
2022-11-16T12:54:31.498Z,2.57
2022-11-16T12:57:25.623Z,2.44
2022-11-16T13:00:12.324Z,2.37
2022-11-16T13:02:57.179Z,2.32
2022-11-16T13:05:47.236Z,2.26
2022-11-16T13:08:29.524Z,2.18
2022-11-16T13:11:20.705Z,2.12
2022-11-16T13:13:57.030Z,2.13
2022-11-16T13:16:28.139Z,2.08
2022-11-16T13:19:14.666Z,2.06
2022-11-16T13:21:48.131Z,2.03
2022-11-16T13:24:26.237Z,1.96
